Latest Coastal Weather Observations for Flinders Island Airport

IDV60701

Issued at 10:31 pm EDT Thursday 18 December 2014 (issued every 10 minutes, with the page automatically refreshed every 10 minutes)

About coastal observations | Map of coastal stations | Coastal observations for VIC | Marine services | Other Formats
Station Details ID: 099005 Name: FLINDERS ISLAND AIRPORT Lat: -40.09 Lon: 148.00 Height: 9.0 m
Data from the previous 72 hours. | See also: Recent months at Flinders Island Airport
Date/Time
EDT
Temp

°C
Wind Pressure Rain
since 9am
mm
Weather Cloud Vis
km
Sea
Height
m
Swell
Dir
 
Speed
knots
Gust
knots
hPa Trend Height
m
Period
s
Dir
18/10:30pm 15.4 WSW 24 29 1008.1 - 0.0 - Partly cloudy 10 - - - -
18/10:00pm 15.6 W 24 29 1007.6 - 0.0 - Partly cloudy 10 - - - -
18/09:30pm 15.5 W 21 28 1007.1 - 0.0 - Partly cloudy 10 - - - -
18/09:00pm 15.5 WSW 22 27 1006.7 - 0.0 - Cloudy 10 - - - -
18/08:30pm 15.5 WSW 23 27 1006.6 - 0.0 - Partly cloudy 10 - - - -
18/08:27pm 15.5 WSW 23 27 1006.6 - 0.0 - Partly cloudy 10 - - - -
18/08:16pm 15.8 WSW 22 27 1006.5 - 0.0 - Partly cloudy 10 - - - -
18/08:00pm 16.1 W 26 30 1006.3 - 0.0 - Partly cloudy 10 - - - -
18/07:30pm 16.3 W 26 31 1005.9 - 0.0 - Partly cloudy 10 - - - -
18/07:00pm 17.0 W 25 30 1005.1 - 0.0 - Partly cloudy 10 - - - -
18/06:30pm 18.1 W 23 29 1004.8 - 0.0 - Partly cloudy 10 - - - -
18/06:00pm 17.4 WSW 22 27 1004.3 - 0.0 - Cloudy 10 - - - -
18/05:30pm 17.6 W 25 29 1004.1 - 0.0 - - 10 - - - -
18/05:00pm 18.8 WSW 27 31 1004.3 - 0.0 - - 10 - - - -
18/04:30pm 18.5 W 21 27 1004.6 - 0.0 - - 10 - - - -
18/04:00pm 17.9 WNW 21 27 1004.5 - 0.0 - Partly cloudy 10 - - - -
18/03:30pm 19.2 WNW 20 26 1003.7 - 0.0 - Partly cloudy 10 - - - -
18/03:00pm 20.1 WNW 20 24 1003.7 - 0.0 - Mostly clear 10 - - - -
18/02:30pm 21.0 NW 22 27 1003.7 - 0.0 - - 10 - - - -
18/02:00pm 22.2 NW 19 26 1003.4 - 0.0 - - 10 - - - -
18/01:30pm 23.1 WNW 20 27 1003.3 - 0.0 - Partly cloudy 10 - - - -
18/01:26pm 24.1 WNW 20 27 1003.3 - 0.0 - Partly cloudy 10 - - - -
18/01:00pm 21.5 N 13 19 1003.4 - 0.0 - Partly cloudy 10 - - - -
18/12:30pm 22.2 NNE 13 19 1003.6 - 0.0 - Partly cloudy 10 - - - -
18/12:00pm 21.2 N 16 22 1003.8 - 0.0 - - 10 - - - -
18/11:39am 21.3 NNE 17 27 1003.5 - 0.0 - - 10 - - - -
18/11:30am 21.0 NNE 19 24 1003.5 - 0.0 - - 10 - - - -
18/11:11am 20.3 NNE 19 29 1003.7 - 0.0 - - 10 - - - -
18/11:00am 20.5 NNE 20 26 1003.9 - 0.0 - - 10 - - - -
18/10:30am 20.0 NNE 19 28 1004.4 - 0.0 - - 10 - - - -
18/10:00am 19.5 NNE 18 26 1004.9 - 0.0 - Partly cloudy 10 - - - -
18/09:30am 18.8 NNE 19 26 1005.3 - 0.0 - Partly cloudy 10 - - - -
18/09:00am 18.6 NNE 17 22 1005.8 - 0.0 - Mostly clear 10 - - - -
18/08:30am 17.7 NNE 14 18 1006.2 - 0.0 - - 10 - - - -
18/08:00am 17.3 NNE 10 15 1006.5 - 0.0 - Partly cloudy 10 - - - -
18/07:30am 16.4 NE 6 9 1006.6 - 0.0 - - 10 - - - -
18/07:00am 14.2 NE 7 9 1006.9 - 0.0 - - 10 - - - -
18/06:30am 12.3 N 5 7 1006.9 - 0.0 - - 10 - - - -
18/06:00am 13.5 N 9 15 1006.9 - 0.0 - - 10 - - - -
18/05:30am 13.4 N 9 14 1006.8 - 0.0 - - 10 - - - -
18/05:00am 12.9 N 8 13 1006.8 - 0.0 - - 10 - - - -
18/04:30am 13.0 NNE 3 6 1006.6 - 0.0 - - 10 - - - -
18/04:00am 10.9 SE 2 4 1006.7 - 0.0 - - 10 - - - -
18/03:30am 8.1 NE 1 4 1006.7 - 0.0 - - 10 - - - -
18/03:00am 8.9 NE 5 8 1007.0 - 0.0 - - 10 - - - -
18/02:30am 10.0 NNE 6 8 1007.1 - 0.0 - - 10 - - - -
18/02:00am 8.8 NE 8 10 1007.5 - 0.0 - - 10 - - - -
18/01:30am 9.1 NE 7 7 1007.7 - 0.0 - - 10 - - - -
18/01:00am 12.3 N 7 8 1007.8 - 0.0 - - 10 - - - -
18/12:30am 12.8 NW 5 7 1007.9 - 0.0 - - 10 - - - -
18/12:00am 14.3 WNW 9 12 1008.0 - 0.0 - Cloudy 10 - - - -
 
Date/Time
EDT
Temp

°C
Wind Pressure Rain
since 9am
mm
Weather Cloud Vis
km
Sea
Height
m
Swell
Dir
 
Speed
knots
Gust
knots
hPa Trend Height
m
Period
s
Dir
17/11:30pm 14.7 W 12 15 1008.2 - 0.0 - - 10 - - - -
17/11:00pm 14.1 WNW 10 14 1008.1 - 0.0 - - 10 - - - -
17/10:30pm 14.0 WNW 11 16 1008.5 - 0.0 - - 10 - - - -
17/10:00pm 14.4 W 15 19 1008.8 - 0.0 - - 10 - - - -
17/09:30pm 14.5 W 14 18 1008.7 - 0.0 - Partly cloudy 10 - - - -
17/09:00pm 14.5 W 14 17 1008.4 - 0.0 - - 10 - - - -
17/08:30pm 14.7 W 16 21 1008.2 - 0.0 - - 10 - - - -
17/08:00pm 15.3 W 18 23 1008.1 - 0.0 - - 10 - - - -
17/07:30pm 15.8 W 19 23 1007.9 - 0.0 - - 10 - - - -
17/07:00pm 16.2 W 18 23 1007.6 - 0.0 - - 10 - - - -
17/06:30pm 16.7 W 17 22 1007.4 - 0.0 - Partly cloudy 10 - - - -
17/06:00pm 17.0 W 18 22 1007.3 - 0.0 - - 10 - - - -
17/05:30pm 17.0 W 19 24 1007.2 - 0.0 - Partly cloudy 10 - - - -
17/05:00pm 16.9 W 19 25 1007.4 - 0.0 - Partly cloudy 10 - - - -
17/04:30pm 17.1 W 21 26 1007.4 - 0.0 - Partly cloudy 10 - - - -
17/04:00pm 17.3 W 20 26 1007.2 - 0.0 - Partly cloudy 10 - - - -
17/03:30pm 17.9 W 21 27 1007.2 - 0.0 - Partly cloudy 10 - - - -
17/03:00pm 17.7 W 21 26 1007.2 - 0.0 - Mostly clear 10 - - - -
17/02:30pm 17.6 W 20 28 1007.2 - 0.0 - - 10 - - - -
17/02:00pm 18.0 W 21 26 1007.0 - 0.0 - - 10 - - - -
17/01:30pm 17.8 W 19 23 1007.1 - 0.0 - - 10 - - - -
17/01:00pm 17.3 WSW 20 27 1007.3 - 0.0 - Partly cloudy 10 - - - -
17/12:30pm 17.3 WSW 20 25 1007.1 - 0.0 - - 10 - - - -
17/12:00pm 17.4 WSW 21 25 1006.9 - 0.0 - Mostly clear 10 - - - -
17/11:30am 16.6 WSW 22 27 1006.5 - 0.0 - Partly cloudy 10 - - - -
17/11:00am 17.0 WSW 20 25 1006.2 - 0.0 - Partly cloudy 10 - - - -
17/10:30am 16.0 WSW 20 26 1005.9 - 0.0 - Partly cloudy 10 - - - -
17/10:00am 15.5 WSW 21 24 1005.7 - 0.0 - Partly cloudy 10 - - - -
17/09:30am 16.3 WSW 21 26 1005.6 - 0.0 - Partly cloudy 10 - - - -
17/09:00am 15.5 WSW 21 26 1005.2 - 1.0 - Mostly clear 10 - - - -
17/08:30am 15.4 WSW 23 29 1004.8 - 1.0 - Partly cloudy 10 - - - -
17/08:00am 15.0 WSW 22 28 1004.3 - 1.0 - Partly cloudy 10 - - - -
17/07:30am 14.6 WSW 23 29 1003.8 - 1.0 - Partly cloudy 10 - - - -
17/07:00am 14.3 WSW 24 29 1003.3 - 1.0 - Partly cloudy 10 - - - -
17/06:30am 13.9 WSW 24 29 1002.7 - 1.0 - Partly cloudy 10 - - - -
17/06:00am 14.0 WSW 25 30 1002.0 - 1.0 - Mostly clear 10 - - - -
17/05:30am 14.0 WSW 27 33 1001.5 - 1.0 - Partly cloudy 10 - - - -
17/05:00am 14.1 WSW 27 32 1001.1 - 1.0 - Partly cloudy 10 - - - -
17/04:30am 14.0 WSW 28 33 1000.5 - 1.0 - Partly cloudy 10 - - - -
17/04:00am 13.9 WSW 29 36 999.8 - 1.0 - Partly cloudy 10 - - - -
17/03:30am 14.1 WSW 29 35 999.6 - 1.0 - Partly cloudy 10 - - - -
17/03:00am 14.1 WSW 28 36 999.6 - 1.0 - Cloudy 10 - - - -
17/02:30am 14.3 WSW 31 39 999.0 - 1.0 - Partly cloudy 10 - - - -
17/02:10am 14.5 W 30 43 998.8 - 1.0 - Partly cloudy 10 - - - -
17/02:00am 14.5 WSW 31 38 998.6 - 1.0 - Partly cloudy 10 - - - -
17/01:30am 14.7 W 33 42 998.5 - 1.0 - Partly cloudy 10 - - - -
17/01:00am 14.3 W 30 40 998.3 - 1.0 - Partly cloudy 10 - - - -
17/12:37am 14.6 W 27 38 997.9 - 1.0 - Partly cloudy 10 - - - -
17/12:30am 14.4 W 28 36 997.9 - 1.0 - Partly cloudy 10 - - - -
17/12:00am 14.8 W 30 41 997.6 - 1.0 - Partly cloudy 10 - - - -
 
Date/Time
EDT
Temp

°C
Wind Pressure Rain
since 9am
mm
Weather Cloud Vis
km
Sea
Height
m
Swell
Dir
 
Speed
knots
Gust
knots
hPa Trend Height
m
Period
s
Dir
16/11:30pm 14.5 W 29 39 997.4 - 1.0 - Partly cloudy 10 - - - -
16/11:04pm 14.4 W 29 39 997.2 - 1.0 - - 10 - - - -
16/11:00pm 14.3 W 29 37 997.0 - 1.0 - - 10 - - - -
16/10:30pm 14.5 W 32 43 996.7 - 0.8 - Partly cloudy 10 - - - -
16/10:00pm 15.5 W 30 40 996.4 - 0.8 - Partly cloudy 10 - - - -
16/09:30pm 15.9 WNW 27 38 996.0 - 0.8 - Partly cloudy 10 - - - -
16/09:08pm 15.1 WNW 19 30 996.3 - 0.8 - Partly cloudy 10 - - - -
16/09:00pm 14.6 WNW 19 26 996.6 - 0.8 Recent precip. Cloudy 10 - - - -
16/08:30pm 13.5 WNW 19 28 996.2 - 0.8 - Partly cloudy 10 - - - -
16/08:00pm 15.1 W 28 37 996.2 - 0.6 - Partly cloudy 9 - - - -
16/07:56pm 15.2 W 27 37 995.8 - 0.4 - Partly cloudy 10 - - - -
16/07:46pm 15.5 W 28 37 994.7 - 0.4 - Partly cloudy 9 - - - -
16/07:30pm 16.1 W 21 35 994.9 - 0.2 - Partly cloudy 9 - - - -
16/07:00pm 16.5 W 24 30 994.4 - 0.0 - Partly cloudy 10 - - - -
16/06:30pm 17.7 W 26 33 993.3 - 0.0 - Partly cloudy 10 - - - -
16/06:00pm 18.1 W 20 27 992.4 - 0.0 - Cloudy 10 - - - -
16/05:30pm 18.3 W 15 18 991.7 - 0.0 - - 10 - - - -
16/05:16pm 19.3 W 14 19 991.3 - 0.0 - Partly cloudy 10 - - - -
16/05:00pm 18.9 W 17 20 991.6 - 0.0 - Partly cloudy 10 - - - -
16/04:30pm 19.8 WNW 19 27 992.0 - 0.0 - Partly cloudy 10 - - - -
16/04:02pm 19.9 WNW 19 26 992.3 - 0.0 - Partly cloudy 10 - - - -
16/04:00pm 19.9 WNW 19 26 992.3 - 0.0 - Partly cloudy 10 - - - -
16/03:30pm 21.0 WNW 16 21 991.1 - 0.0 - Partly cloudy 10 - - - -
16/03:27pm 20.5 NW 15 21 991.1 - 0.0 - Partly cloudy 10 - - - -
16/03:00pm 20.1 WNW 17 22 992.1 - 0.0 - Partly cloudy 10 - - - -
16/02:30pm 19.7 WNW 19 27 993.0 - 0.0 - Partly cloudy 9 - - - -
16/02:01pm 19.2 WNW 20 30 993.0 - 0.0 - Cloudy 10 - - - -
16/02:00pm 19.1 WNW 21 30 993.0 - 0.0 - Cloudy 10 - - - -
16/01:43pm 19.7 WNW 22 32 993.0 - 0.0 - Partly cloudy 10 - - - -
16/01:42pm 19.8 WNW 23 32 993.0 - 0.0 - Partly cloudy 10 - - - -
16/01:30pm 21.0 WNW 23 30 992.6 - 0.0 - Partly cloudy 10 - - - -
16/01:00pm 22.7 NW 22 30 992.3 - 0.0 - Partly cloudy 10 - - - -
16/12:58pm 24.1 NW 20 30 992.1 - 0.0 - Partly cloudy 10 - - - -
16/12:41pm 25.3 NNW 17 27 992.1 - 0.0 - Partly cloudy 10 - - - -
16/12:30pm 24.5 NNE 17 22 992.2 - 0.0 - Partly cloudy 10 - - - -
16/12:00pm 23.4 N 21 28 992.4 - 0.0 - - 9 - - - -
16/11:30am 24.0 NNE 24 35 992.5 - 0.0 - - 10 - - - -
16/11:25am 24.0 NNE 23 33 992.4 - 0.0 - - 10 - - - -
16/11:00am 24.7 NNE 23 30 992.6 - 0.0 - - 10 - - - -
16/10:30am 23.3 NNE 17 24 993.7 - 0.0 - Partly cloudy 10 - - - -
16/10:00am 22.5 NNE 20 25 993.9 - 0.0 - Partly cloudy 10 - - - -
16/09:30am 23.0 NNE 24 31 993.2 - 0.0 - - 10 - - - -
16/09:00am 22.7 NE 24 31 993.3 - 1.6 - Mostly clear 10 - - - -
16/08:30am 22.0 NE 24 31 993.9 - 1.6 - - 10 - - - -
16/08:10am 21.3 NE 24 34 994.4 - 1.6 - - 10 - - - -
16/08:00am 21.0 NE 25 32 994.6 - 1.6 - Partly cloudy 10 - - - -
16/07:30am 19.6 NE 21 27 995.1 - 1.6 - Partly cloudy 10 - - - -
16/07:00am 19.2 NNE 19 26 995.7 - 1.6 - Cloudy 10 - - - -
16/06:47am 19.0 NE 17 27 996.0 - 1.6 - Partly cloudy 10 - - - -
16/06:30am 18.8 NNE 18 26 996.3 - 1.6 - Partly cloudy 10 - - - -
16/06:00am 18.1 NE 13 19 996.6 - 1.6 - Mostly clear 10 - - - -
16/05:30am 17.1 ENE 12 15 997.0 - 1.6 - Partly cloudy 10 - - - -
16/05:00am 16.8 NE 7 9 998.3 - 1.6 - Partly cloudy 10 - - - -
16/04:30am 17.2 NE 10 14 999.2 - 1.6 - Partly cloudy 10 - - - -
16/04:25am 17.7 NNE 12 15 999.7 - 1.6 - Partly cloudy 10 - - - -
16/04:00am 19.1 N 20 32 1000.2 - 0.2 - Partly cloudy 10 - - - -
16/03:47am 21.4 N 20 30 999.9 - 0.2 - Partly cloudy 10 - - - -
16/03:30am 20.1 NNE 18 25 999.8 - 0.2 - Partly cloudy 10 - - - -
16/03:10am 19.6 N 11 20 1000.0 - 0.2 - Partly cloudy 10 - - - -
16/03:00am 19.1 N 5 7 1000.1 - 0.2 Recent precip. Cloudy 10 - - - -
16/02:30am 16.7 ESE 4 6 1000.9 - 0.2 - Partly cloudy 10 - - - -
16/02:00am 16.8 NNW 5 7 1001.6 - 0.0 - Partly cloudy 10 - - - -
16/01:30am 16.4 WSW 4 6 1001.9 - 0.0 - Partly cloudy 10 - - - -
16/01:00am 16.2 NNW 8 10 1002.6 - 0.0 - Partly cloudy 10 - - - -
16/12:30am 14.3 ENE 6 7 1001.3 - 0.0 - - 10 - - - -
16/12:00am 14.3 E 5 7 1002.1 - 0.0 - Partly cloudy 10 - - - -
 
Date/Time
EDT
Temp

°C
Wind Pressure Rain
since 9am
mm
Weather Cloud Vis
km
Sea
Height
m
Swell
Dir
 
Speed
knots
Gust
knots
hPa Trend Height
m
Period
s
Dir
15/11:30pm 16.3 S 5 7 1003.5 - 0.0 - - 10 - - - -
15/11:00pm 15.8 SSE 5 7 1003.1 - 0.0 - - 10 - - - -

Other Formats:

Comma delimited format used in spreadsheet applications
http://www.bom.gov.au/fwo/IDV60701/IDV60701.94980.axf

JavaScript Object Notation format (JSON) in row-major order
http://www.bom.gov.au/fwo/IDV60701/IDV60701.94980.json